Time;durP1;ratioP1;P1;durP2;ratioP2;P2;SDS_P1;SDS_P2;PMS_P1;PMS_P2;Temp;Humidity;BMP_temperature;BMP_pressure;BME280_temperature;BME280_humidity;BME280_pressure;Samples;Min_cycle;Max_cycle;Signal;HPM_P1;HPM_P2
2022/03/15 00:00:25;;;;;;;12.02;6.75;;;;;;;7.91;53.89;97738.28;4936507;29;20063;-78
2022/03/15 00:02:52;;;;;;;9.80;6.53;;;;;;;7.97;53.75;97731.75;4936036;29;20059;-80
2022/03/15 00:05:20;;;;;;;10.93;6.68;;;;;;;8.04;53.74;97738.03;4935942;29;20154;-79
2022/03/15 00:07:48;;;;;;;10.77;6.95;;;;;;;8.11;53.54;97739.13;4934983;29;20059;-79
2022/03/15 00:10:18;;;;;;;11.43;6.20;;;;;;;8.19;53.50;97734.03;4936200;29;20517;-78
2022/03/15 00:12:47;;;;;;;11.52;6.95;;;;;;;8.19;52.87;97741.84;4936500;29;20066;-83
2022/03/15 00:15:15;;;;;;;10.18;6.43;;;;;;;8.12;53.20;97739.94;4936095;29;20059;-79
2022/03/15 00:17:44;;;;;;;10.80;6.10;;;;;;;8.13;53.54;97747.59;4934822;29;20055;-79
2022/03/15 00:20:15;;;;;;;8.13;5.70;;;;;;;8.23;53.64;97745.81;4935406;29;20051;-76
2022/03/15 00:22:43;;;;;;;9.75;6.85;;;;;;;8.32;53.45;97751.16;4936544;29;20462;-77
2022/03/15 00:25:13;;;;;;;8.57;6.57;;;;;;;8.37;52.95;97752.34;4936682;29;20056;-78
2022/03/15 00:27:41;;;;;;;10.15;6.32;;;;;;;8.38;52.46;97750.59;4935478;29;20413;-78
2022/03/15 00:30:11;;;;;;;7.95;5.95;;;;;;;8.32;52.54;97762.34;4946116;29;20363;-78
2022/03/15 00:32:38;;;;;;;9.70;6.18;;;;;;;8.28;53.13;97747.19;4956629;29;20066;-79
2022/03/15 00:35:11;;;;;;;12.27;5.80;;;;;;;8.21;52.60;97750.31;4956230;29;20076;-77
2022/03/15 00:37:39;;;;;;;20.80;7.20;;;;;;;8.11;52.81;97752.13;4937303;29;20055;-78
2022/03/15 00:40:07;;;;;;;9.70;5.97;;;;;;;8.06;53.39;97743.91;4939326;29;20044;-77
2022/03/15 00:42:35;;;;;;;8.05;5.10;;;;;;;8.02;53.45;97748.56;4938910;29;20047;-80
2022/03/15 00:45:04;;;;;;;10.48;5.38;;;;;;;7.99;53.11;97740.22;4954073;29;20042;-78
2022/03/15 00:47:33;;;;;;;4.80;3.00;;;;;;;7.94;53.41;97747.63;4959637;28;20052;-76
2022/03/15 00:50:01;;;;;;;6.03;3.40;;;;;;;7.97;54.32;97752.53;4940634;29;20074;-79
2022/03/15 00:52:29;;;;;;;4.70;2.72;;;;;;;8.04;53.46;97745.81;4939015;29;20537;-79
2022/03/15 00:54:56;;;;;;;5.70;3.25;;;;;;;8.05;53.30;97744.88;4939975;29;20052;-77
2022/03/15 00:57:24;;;;;;;4.03;3.00;;;;;;;8.10;53.91;97741.88;4938298;29;20062;-81
2022/03/15 00:59:51;;;;;;;10.40;4.35;;;;;;;8.13;53.68;97742.38;4939623;29;20055;-77
2022/03/15 01:02:19;;;;;;;6.63;3.92;;;;;;;8.11;53.39;97735.69;4940221;29;20537;-79
2022/03/15 01:04:48;;;;;;;6.07;3.38;;;;;;;8.13;53.93;97732.00;4940132;29;20067;-77
2022/03/15 01:07:17;;;;;;;8.60;4.30;;;;;;;8.19;53.42;97736.66;4939325;29;20056;-77
2022/03/15 01:09:44;;;;;;;10.88;5.75;;;;;;;8.24;53.56;97728.44;4939955;29;20055;-77
2022/03/15 01:12:12;;;;;;;8.45;4.78;;;;;;;8.29;53.76;97728.00;4939560;29;20426;-77
2022/03/15 01:14:40;;;;;;;6.00;4.18;;;;;;;8.29;53.23;97721.06;4939692;29;20075;-77
2022/03/15 01:17:08;;;;;;;5.68;3.92;;;;;;;8.28;53.55;97722.00;4938569;29;20507;-77
2022/03/15 01:19:35;;;;;;;7.03;4.00;;;;;;;8.33;53.13;97718.97;4939989;29;20051;-78
2022/03/15 01:22:05;;;;;;;6.95;4.18;;;;;;;8.33;53.12;97724.16;4939849;29;20055;-81
2022/03/15 01:24:32;;;;;;;8.25;4.32;;;;;;;8.34;53.32;97718.03;4940248;29;20048;-79
2022/03/15 01:27:00;;;;;;;7.90;4.40;;;;;;;8.39;53.13;97721.81;4940411;29;20082;-78
2022/03/15 01:29:28;;;;;;;7.07;4.20;;;;;;;8.48;53.40;97709.78;4939532;29;20063;-79
2022/03/15 01:31:56;;;;;;;9.50;6.45;;;;;;;8.51;52.79;97703.53;4939525;29;20048;-78
2022/03/15 01:34:24;;;;;;;7.57;4.85;;;;;;;8.39;52.69;97700.22;4940517;29;20047;-78
2022/03/15 01:36:52;;;;;;;6.97;4.97;;;;;;;8.16;52.64;97687.56;4939240;29;20056;-79
2022/03/15 01:39:21;;;;;;;9.27;4.90;;;;;;;7.95;53.55;97692.91;4939211;29;20498;-77
2022/03/15 01:41:49;;;;;;;7.22;4.47;;;;;;;7.86;54.21;97685.13;4940045;29;20052;-77
2022/03/15 01:44:18;;;;;;;5.70;4.10;;;;;;;7.90;54.04;97692.50;4939656;29;20052;-80
2022/03/15 01:46:47;;;;;;;10.25;4.93;;;;;;;7.93;53.90;97688.81;4937438;29;20056;-77
2022/03/15 01:49:15;;;;;;;7.32;4.57;;;;;;;7.89;53.79;97687.44;4938489;29;20514;-79
2022/03/15 01:51:46;;;;;;;8.00;4.38;;;;;;;7.81;54.22;97688.97;4939176;29;20058;-78
2022/03/15 01:54:15;;;;;;;7.45;3.85;;;;;;;7.75;54.43;97686.09;4938637;29;20055;-81
2022/03/15 01:56:44;;;;;;;10.30;3.92;;;;;;;7.81;54.84;97675.97;4937823;29;20525;-78
2022/03/15 01:59:13;;;;;;;4.80;4.07;;;;;;;7.91;55.05;97680.31;4938408;29;20058;-78
2022/03/15 02:01:42;;;;;;;6.93;4.57;;;;;;;7.97;54.63;97677.19;4938544;29;20044;-79
2022/03/15 02:04:11;;;;;;;6.07;4.75;;;;;;;8.07;54.41;97674.56;4938171;29;20152;-76
2022/03/15 02:06:41;;;;;;;7.72;4.28;;;;;;;8.09;53.94;97681.28;4938944;29;20067;-78
2022/03/15 02:09:09;;;;;;;8.95;3.90;;;;;;;7.97;53.81;97674.59;4937834;29;20060;-77
2022/03/15 02:11:37;;;;;;;9.93;4.50;;;;;;;7.83;54.08;97673.25;4938829;29;20063;-77
2022/03/15 02:14:07;;;;;;;8.77;4.20;;;;;;;7.69;54.83;97655.47;4938009;29;20505;-79
2022/03/15 02:16:35;;;;;;;8.05;4.15;;;;;;;7.60;54.61;97647.53;4937615;29;20055;-77
2022/03/15 02:19:05;;;;;;;7.65;4.45;;;;;;;7.58;55.33;97653.81;4937555;29;20433;-78
2022/03/15 02:21:36;;;;;;;6.50;3.80;;;;;;;7.60;55.45;97657.91;4946449;29;20048;-79
2022/03/15 02:24:06;;;;;;;7.00;3.87;;;;;;;7.72;55.38;97649.97;4960874;28;20043;-78
2022/03/15 02:26:34;;;;;;;8.48;4.93;;;;;;;7.86;55.12;97646.16;4952685;28;20056;-84
2022/03/15 02:29:01;;;;;;;7.25;4.75;;;;;;;7.91;54.18;97644.78;4941230;29;20055;-79
2022/03/15 02:31:29;;;;;;;14.15;4.38;;;;;;;7.93;54.41;97647.25;4941138;29;20048;-78
2022/03/15 02:33:56;;;;;;;8.65;3.45;;;;;;;7.92;54.16;97645.63;4938954;29;20056;-78
2022/03/15 02:36:24;;;;;;;6.18;3.60;;;;;;;7.85;54.32;97640.16;4937592;29;20495;-78
2022/03/15 02:38:53;;;;;;;9.82;4.57;;;;;;;7.79;54.47;97646.72;4938908;29;20048;-79
2022/03/15 02:41:20;;;;;;;5.60;3.58;;;;;;;7.77;54.59;97643.44;4938337;29;20430;-78
2022/03/15 02:43:48;;;;;;;6.40;3.90;;;;;;;7.75;55.07;97645.34;4937901;29;20066;-78
2022/03/15 02:46:16;;;;;;;5.35;3.33;;;;;;;7.75;55.00;97642.75;4937196;29;20418;-79
2022/03/15 02:48:43;;;;;;;6.47;3.58;;;;;;;7.72;54.55;97643.03;4937134;29;20430;-80
2022/03/15 02:51:12;;;;;;;6.43;3.97;;;;;;;7.70;54.84;97646.72;4937117;29;20055;-77
2022/03/15 02:53:41;;;;;;;6.35;3.40;;;;;;;7.68;54.81;97646.06;4937152;29;20521;-78
2022/03/15 02:56:11;;;;;;;10.43;3.45;;;;;;;7.61;55.24;97645.78;4937083;29;20051;-78
2022/03/15 02:58:39;;;;;;;8.68;3.40;;;;;;;7.53;55.32;97641.25;4939176;29;20464;-80
2022/03/15 03:01:07;;;;;;;8.20;3.95;;;;;;;7.45;55.29;97635.09;4940278;29;20051;-81
2022/03/15 03:03:35;;;;;;;7.53;3.78;;;;;;;7.37;55.58;97634.03;4939173;29;20449;-77
2022/03/15 03:06:03;;;;;;;5.20;3.80;;;;;;;7.37;56.25;97641.00;4937242;29;20063;-79
2022/03/15 03:08:32;;;;;;;9.63;4.05;;;;;;;7.39;55.95;97632.09;4936948;29;20084;-81
2022/03/15 03:11:00;;;;;;;5.57;3.50;;;;;;;7.41;56.11;97638.00;4936590;29;20063;-79
2022/03/15 03:13:30;;;;;;;7.20;4.28;;;;;;;7.46;56.04;97631.56;4936489;29;20051;-79
2022/03/15 03:16:00;;;;;;;6.68;3.92;;;;;;;7.52;55.86;97633.59;4935962;29;20490;-77
2022/03/15 03:18:33;;;;;;;6.55;3.47;;;;;;;7.54;55.74;97636.88;4936665;29;20060;-79
2022/03/15 03:21:02;;;;;;;9.70;4.00;;;;;;;7.56;55.81;97635.78;4936518;29;20055;-80
2022/03/15 03:23:31;;;;;;;5.78;3.63;;;;;;;7.65;55.83;97634.13;4936272;29;20058;-79
2022/03/15 03:25:59;;;;;;;4.93;3.60;;;;;;;7.75;55.83;97634.13;4935954;29;20060;-79
2022/03/15 03:28:36;;;;;;;4.10;3.20;;;;;;;7.84;55.59;97639.31;4937416;29;20071;-78
2022/03/15 03:31:05;;;;;;;5.85;3.88;;;;;;;7.91;55.17;97641.34;4937104;29;20141;-80
2022/03/15 03:33:33;;;;;;;7.97;4.68;;;;;;;7.90;54.64;97642.34;4936771;29;20064;-78
2022/03/15 03:36:01;;;;;;;7.18;4.22;;;;;;;7.84;55.08;97643.69;4936257;29;20438;-78
2022/03/15 03:38:29;;;;;;;9.05;4.25;;;;;;;7.75;55.16;97634.97;4937119;29;20059;-78
2022/03/15 03:40:57;;;;;;;6.53;3.83;;;;;;;7.60;55.56;97634.53;4937404;29;20056;-80
2022/03/15 03:43:25;;;;;;;6.13;4.10;;;;;;;7.56;55.31;97630.59;4935917;29;20052;-78
2022/03/15 03:45:54;;;;;;;8.68;4.68;;;;;;;7.47;55.68;97625.41;4935889;29;20058;-78
2022/03/15 03:48:23;;;;;;;7.22;3.92;;;;;;;7.42;56.21;97625.81;4935609;29;20434;-78
2022/03/15 03:50:52;;;;;;;7.65;4.40;;;;;;;7.41;55.79;97622.41;4934360;29;20417;-78
2022/03/15 03:53:21;;;;;;;7.00;3.90;;;;;;;7.45;56.71;97622.13;4934344;29;20506;-78
2022/03/15 03:55:48;;;;;;;8.30;3.83;;;;;;;7.53;56.27;97625.69;4933323;29;20056;-79
2022/03/15 03:58:16;;;;;;;7.55;4.10;;;;;;;7.58;55.92;97614.88;4934721;29;20256;-77
2022/03/15 04:00:44;;;;;;;8.55;4.18;;;;;;;7.55;55.58;97609.97;4936019;29;20055;-78
2022/03/15 04:03:13;;;;;;;6.65;4.43;;;;;;;7.46;56.15;97601.22;4935824;29;20517;-78
2022/03/15 04:05:41;;;;;;;8.73;4.07;;;;;;;7.41;56.53;97609.44;4936241;29;20094;-78
2022/03/15 04:08:10;;;;;;;8.60;5.18;;;;;;;7.39;56.27;97600.97;4933564;29;20058;-78
2022/03/15 04:10:39;;;;;;;5.57;3.50;;;;;;;7.35;56.21;97607.38;4934209;29;20075;-79
2022/03/15 04:13:07;;;;;;;8.50;4.22;;;;;;;7.29;56.39;97602.72;4935712;29;20059;-78
2022/03/15 04:15:35;;;;;;;9.48;4.32;;;;;;;7.25;56.71;97600.53;4938096;29;20054;-79
2022/03/15 04:18:03;;;;;;;6.78;3.72;;;;;;;7.29;56.79;97597.53;4937557;29;20062;-81
2022/03/15 04:20:32;;;;;;;6.40;3.75;;;;;;;7.36;57.87;97596.03;4938634;29;20051;-78
2022/03/15 04:23:00;;;;;;;6.22;3.35;;;;;;;7.49;57.33;97587.16;4939716;29;20506;-80
2022/03/15 04:25:28;;;;;;;6.30;4.05;;;;;;;7.60;57.56;97590.41;4951329;29;20044;-77
2022/03/15 04:28:00;;;;;;;6.35;3.78;;;;;;;7.73;57.29;97594.50;4960309;28;20040;-78
2022/03/15 04:30:28;;;;;;;5.55;3.90;;;;;;;7.83;56.77;97590.94;4960796;29;20047;-81
2022/03/15 04:32:56;;;;;;;6.28;3.00;;;;;;;7.87;56.21;97585.44;4942065;29;20051;-79
2022/03/15 04:35:24;;;;;;;7.85;3.80;;;;;;;7.78;55.74;97581.91;4941330;29;20048;-78
2022/03/15 04:37:54;;;;;;;6.55;2.88;;;;;;;7.73;56.51;97592.72;4939893;29;20059;-79
2022/03/15 04:40:22;;;;;;;7.35;3.83;;;;;;;7.73;56.50;97576.31;4959117;28;20047;-79
2022/03/15 04:42:50;;;;;;;6.47;3.70;;;;;;;7.74;56.31;97583.97;4959858;28;20058;-79
2022/03/15 04:45:18;;;;;;;6.97;3.30;;;;;;;7.72;55.92;97588.50;4941632;29;20050;-80
2022/03/15 04:47:46;;;;;;;7.28;3.72;;;;;;;7.71;56.43;97586.84;4939581;29;20051;-80
2022/03/15 04:50:13;;;;;;;7.10;3.35;;;;;;;7.77;56.19;97586.28;4941076;29;20076;-78
2022/03/15 04:52:41;;;;;;;5.68;3.50;;;;;;;7.81;56.14;97592.03;4939576;29;20047;-79
2022/03/15 04:55:11;;;;;;;8.85;4.25;;;;;;;7.78;56.16;97580.16;4939957;29;20054;-78
2022/03/15 04:57:38;;;;;;;7.65;4.13;;;;;;;7.78;56.36;97580.16;4939364;29;20051;-80
2022/03/15 05:00:08;;;;;;;6.68;3.67;;;;;;;7.82;56.35;97583.28;4939622;29;20051;-77
2022/03/15 05:02:36;;;;;;;6.43;4.28;;;;;;;7.84;56.24;97582.16;4939502;29;20055;-77
2022/03/15 05:05:05;;;;;;;7.68;4.72;;;;;;;7.80;55.44;97585.19;4939578;29;20048;-77
2022/03/15 05:07:33;;;;;;;6.63;4.25;;;;;;;7.74;56.30;97585.75;4938812;29;20090;-78
2022/03/15 05:12:47;;;;;;;7.28;4.22;;;;;;;7.89;56.24;97589.53;4939357;29;20055;-79
2022/03/15 05:15:14;;;;;;;7.32;4.53;;;;;;;7.98;56.08;97585.28;4940396;29;20063;-77
2022/03/15 05:17:42;;;;;;;6.47;4.18;;;;;;;7.98;55.43;97587.88;4939495;29;20461;-78
2022/03/15 05:20:11;;;;;;;7.80;4.50;;;;;;;7.92;55.83;97584.06;4940130;29;20051;-78
2022/03/15 05:22:39;;;;;;;7.13;4.10;;;;;;;7.91;55.71;97581.59;4939606;29;20052;-78
2022/03/15 05:25:07;;;;;;;7.07;4.22;;;;;;;7.95;55.67;97577.78;4938971;29;20536;-76
2022/03/15 05:27:35;;;;;;;9.15;5.00;;;;;;;7.94;55.54;97576.97;4939249;29;20048;-78
2022/03/15 05:30:06;;;;;;;7.53;3.95;;;;;;;7.84;55.54;97581.34;4940309;29;20055;-79
2022/03/15 05:32:33;;;;;;;7.18;4.22;;;;;;;7.82;56.10;97572.88;4959784;29;20484;-80
2022/03/15 05:35:02;;;;;;;7.30;4.38;;;;;;;7.82;55.91;97572.88;4960856;28;20044;-77
2022/03/15 05:37:30;;;;;;;9.07;4.75;;;;;;;7.70;55.88;97574.81;4943721;29;20052;-80
2022/03/15 05:39:57;;;;;;;9.05;5.00;;;;;;;7.61;56.25;97580.88;4942015;29;20051;-77
2022/03/15 05:42:25;;;;;;;9.98;5.07;;;;;;;7.56;56.50;97577.84;4939909;29;20609;-78
2022/03/15 05:44:53;;;;;;;11.38;4.30;;;;;;;7.51;56.29;97585.25;4939821;29;20051;-81
2022/03/15 05:49:51;;;;;;;7.38;3.40;;;;;;;7.56;57.04;97583.84;4920647;29;20052;-81
2022/03/15 05:52:19;;;;;;;5.38;3.90;;;;;;;7.63;56.99;97584.13;4923318;29;20045;-81
2022/03/15 05:54:47;;;;;;;9.88;5.45;;;;;;;7.64;56.42;97583.16;4922356;29;20096;-81
2022/03/15 05:57:15;;;;;;;13.55;6.00;;;;;;;7.55;56.52;97581.41;4923171;29;20040;-81
2022/03/15 05:59:43;;;;;;;9.18;5.75;;;;;;;7.44;56.60;97587.56;4923266;29;20052;-80
2022/03/15 06:02:11;;;;;;;11.77;5.35;;;;;;;7.33;57.44;97592.91;4922022;29;20033;-81
2022/03/15 06:04:39;;;;;;;11.68;4.80;;;;;;;7.29;57.16;97586.34;4920408;29;20048;-81
2022/03/15 06:07:08;;;;;;;11.63;4.95;;;;;;;7.25;57.61;97585.78;4918497;29;20057;-81
2022/03/15 06:09:35;;;;;;;8.20;4.93;;;;;;;7.28;57.23;97585.53;4919136;29;20052;-81
2022/03/15 06:12:04;;;;;;;8.70;4.80;;;;;;;7.30;57.67;97586.19;4915831;29;20060;-81
2022/03/15 06:14:31;;;;;;;8.50;4.80;;;;;;;7.37;57.41;97582.09;4920027;29;20068;-81
2022/03/15 06:16:59;;;;;;;6.80;4.18;;;;;;;7.48;57.27;97580.31;4924265;28;20033;-80
2022/03/15 06:19:27;;;;;;;9.75;4.10;;;;;;;7.61;57.03;97580.88;4986950;23;20054;-81
2022/03/15 06:30:05;;;;;;;8.70;4.57;;;;;;;7.71;57.02;97565.25;3207520;26;20063;-80
2022/03/15 06:32:34;;;;;;;6.40;4.63;;;;;;;7.71;56.82;97557.47;4961690;28;20059;-81
2022/03/15 06:35:14;;;;;;;8.52;5.13;;;;;;;7.68;57.16;97547.38;5019490;23;20039;-81
2022/03/15 06:37:50;;;;;;;8.73;5.78;;;;;;;7.70;57.03;97537.66;5313803;23;20036;-81
2022/03/15 07:05:44;;;;;;;16.08;8.23;;;;;;;8.24;56.36;97555.13;4943141;29;20071;-82
2022/03/15 07:25:54;;;;;;;10.35;7.82;;;;;;;8.41;55.73;97578.72;4886437;29;20032;-82
2022/03/15 07:28:58;;;;;;;14.73;8.80;;;;;;;8.44;55.70;97574.06;4886254;29;20026;-81
2022/03/15 07:31:39;;;;;;;14.57;8.68;;;;;;;8.45;55.08;97565.28;5546122;23;20046;-80
2022/03/15 08:25:11;;;;;;;12.10;7.82;;;;;;;8.88;53.80;97539.59;5019100;23;20138;-81
2022/03/15 08:27:39;;;;;;;13.38;7.95;;;;;;;8.86;53.72;97525.91;4976937;28;20083;-81
2022/03/15 08:30:09;;;;;;;13.77;9.00;;;;;;;8.84;53.54;97527.84;5206548;23;20040;-81
2022/03/15 08:37:54;;;;;;;11.50;7.97;;;;;;;8.80;53.72;97534.31;5722092;23;20083;-81
2022/03/15 08:40:24;;;;;;;15.68;9.48;;;;;;;8.79;54.01;97532.66;4959084;28;20036;-81
2022/03/15 08:42:53;;;;;;;13.95;7.75;;;;;;;8.82;54.01;97533.19;4959666;28;20127;-81
2022/03/15 08:45:22;;;;;;;18.55;8.30;;;;;;;8.86;53.72;97525.91;4959058;28;20032;-81
2022/03/15 08:47:50;;;;;;;14.25;8.48;;;;;;;8.90;53.85;97519.44;4954487;28;20032;-81
2022/03/15 08:50:26;;;;;;;15.27;8.45;;;;;;;8.92;53.62;97516.69;4940833;29;20057;-81
2022/03/15 08:52:57;;;;;;;17.55;8.93;;;;;;;8.93;53.74;97515.72;4939728;29;20052;-81
2022/03/15 08:55:33;;;;;;;15.50;8.80;;;;;;;8.96;53.61;97523.22;4940438;29;20036;-83
2022/03/15 09:06:00;;;;;;;18.50;10.30;;;;;;;9.45;52.88;97506.22;4940742;28;20036;-82
2022/03/15 09:08:28;;;;;;;16.88;9.25;;;;;;;9.61;52.42;97505.50;5026720;23;20055;-81
2022/03/15 09:13:44;;;;;;;16.77;8.50;;;;;;;9.79;51.75;97505.44;5075231;23;20072;-80
2022/03/15 09:16:13;;;;;;;14.93;8.45;;;;;;;9.84;51.33;97500.59;4948234;29;20047;-81
2022/03/15 09:18:41;;;;;;;14.10;7.68;;;;;;;9.95;51.45;97491.72;4943653;28;20076;-81
2022/03/15 09:21:11;;;;;;;11.80;7.55;;;;;;;10.04;51.38;97503.00;5106350;23;20044;-81
2022/03/15 09:23:43;;;;;;;13.15;7.82;;;;;;;10.08;50.94;97496.50;5099222;23;21185;-81
2022/03/15 09:26:15;;;;;;;11.95;7.65;;;;;;;10.15;50.87;97492.28;5230950;23;20209;-80
2022/03/15 09:29:01;;;;;;;13.75;7.95;;;;;;;10.21;50.52;97483.84;5270829;23;20051;-81
2022/03/15 09:34:22;;;;;;;13.02;7.15;;;;;;;10.37;50.60;97479.69;4920366;29;20040;-80
2022/03/15 09:36:51;;;;;;;9.65;6.35;;;;;;;10.47;50.01;97480.34;4922788;29;20116;-80
2022/03/15 09:39:19;;;;;;;13.77;6.93;;;;;;;10.54;49.84;97476.13;4906332;29;20086;-80
2022/03/15 09:41:51;;;;;;;12.48;7.25;;;;;;;10.64;49.89;97468.97;4923197;29;20051;-80
2022/03/15 09:44:19;;;;;;;11.95;7.40;;;;;;;10.72;49.49;97461.16;4922115;29;20063;-80
2022/03/15 09:46:51;;;;;;;11.57;7.05;;;;;;;10.82;49.17;97452.34;4907105;29;20064;-80
2022/03/15 09:49:26;;;;;;;12.75;8.15;;;;;;;10.93;49.17;97452.03;4972898;23;20048;-80
2022/03/15 09:54:29;;;;;;;18.55;10.88;;;;;;;11.10;48.90;97461.50;4952496;28;20107;-79
2022/03/15 09:57:02;;;;;;;16.50;10.75;;;;;;;11.17;48.96;97450.38;4949750;28;20043;-80
2022/03/15 09:59:34;;;;;;;17.67;10.30;;;;;;;11.22;48.77;97450.72;4932534;28;20040;-80
2022/03/15 10:02:03;;;;;;;18.33;10.27;;;;;;;11.33;48.84;97442.56;4926867;29;20291;-79
2022/03/15 10:04:31;;;;;;;14.77;8.60;;;;;;;11.41;48.59;97439.09;4919476;29;20067;-80
2022/03/15 10:06:59;;;;;;;13.50;8.13;;;;;;;11.48;48.59;97446.13;4947242;28;20051;-80
2022/03/15 10:09:27;;;;;;;16.55;7.75;;;;;;;11.52;48.18;97434.34;4949176;28;20040;-80
2022/03/15 10:11:56;;;;;;;11.88;7.38;;;;;;;11.55;48.03;97426.16;4931451;29;20032;-80
2022/03/15 10:14:25;;;;;;;16.08;7.53;;;;;;;11.58;48.16;97426.81;4940364;29;20059;-80
2022/03/15 10:17:01;;;;;;;14.45;7.93;;;;;;;11.58;48.06;97425.00;4931186;29;20075;-81
2022/03/15 10:19:30;;;;;;;9.85;6.45;;;;;;;11.61;48.36;97426.47;4942408;29;20043;-79
2022/03/15 10:22:02;;;;;;;10.70;6.20;;;;;;;11.64;48.13;97418.31;4942469;29;20095;-80
2022/03/15 10:24:36;;;;;;;11.75;7.10;;;;;;;11.70;48.23;97409.81;4942371;29;20032;-80
2022/03/15 10:27:10;;;;;;;7.90;5.72;;;;;;;11.73;47.95;97412.88;5058603;23;20050;-80
2022/03/15 10:37:41;;;;;;;11.60;6.23;;;;;;;11.81;48.03;97391.13;5109980;23;20075;-81
2022/03/15 10:40:11;;;;;;;10.48;6.03;;;;;;;11.82;48.13;97381.50;4961102;28;20309;-81
2022/03/15 10:42:40;;;;;;;11.38;6.10;;;;;;;11.83;48.47;97383.09;4960944;28;20032;-81
2022/03/15 10:45:18;;;;;;;14.00;6.28;;;;;;;11.86;48.50;97380.97;4961582;28;20064;-80
2022/03/15 10:47:52;;;;;;;10.20;6.15;;;;;;;11.92;48.65;97375.09;4961112;28;20043;-82
2022/03/15 10:50:20;;;;;;;;;;;;;;;12.01;48.64;97375.06;4961491;28;20068;-82
2022/03/15 10:52:53;;;;;;;11.20;6.03;;;;;;;12.03;47.94;97368.69;4961211;28;19941;-81
2022/03/15 10:55:24;;;;;;;13.18;6.70;;;;;;;12.05;47.86;97360.66;4960106;28;20038;-81
2022/03/15 10:57:56;;;;;;;10.05;6.15;;;;;;;12.10;48.05;97353.09;4961323;28;20035;-80
2022/03/15 11:05:49;;;;;;;11.60;5.63;;;;;;;12.29;47.23;97347.44;5348999;23;20063;-80
2022/03/15 11:21:33;;;;;;;11.73;6.40;;;;;;;12.41;47.96;97326.09;4932707;29;20028;-81
2022/03/15 11:24:03;;;;;;;7.93;5.65;;;;;;;12.43;47.96;97311.84;4937179;29;20151;-78
2022/03/15 11:26:34;;;;;;;14.15;6.47;;;;;;;12.45;48.90;97324.75;4924864;29;20095;-79
2022/03/15 11:42:35;;;;;;;8.33;5.37;;;;;;;12.30;49.72;97322.88;5481396;23;20394;-81
2022/03/15 11:45:11;;;;;;;12.93;6.18;;;;;;;12.24;49.42;97318.34;4939385;28;20350;-80
2022/03/15 11:48:05;;;;;;;9.60;5.57;;;;;;;12.23;50.64;97316.72;4952159;23;20037;-83
2022/03/15 11:50:38;;;;;;;11.85;6.80;;;;;;;12.23;51.18;97295.81;4951397;29;20043;-85
2022/03/15 11:53:10;;;;;;;10.55;6.25;;;;;;;12.23;52.30;97301.03;4951943;29;20127;-83
2022/03/15 11:55:46;;;;;;;8.43;5.50;;;;;;;12.19;51.04;97310.22;4947930;29;20063;-81
2022/03/15 11:58:23;;;;;;;7.47;5.55;;;;;;;12.17;53.01;97312.19;4944394;29;20052;-81
2022/03/15 12:00:52;;;;;;;8.35;4.70;;;;;;;12.14;52.12;97312.56;4938041;29;20059;-82
2022/03/15 12:03:21;;;;;;;9.48;6.13;;;;;;;12.13;52.90;97318.75;4928867;29;20052;-82
2022/03/15 12:05:50;;;;;;;9.88;5.25;;;;;;;12.10;53.67;97304.22;4939613;29;20047;-80
2022/03/15 12:08:20;;;;;;;10.73;5.68;;;;;;;12.05;53.68;97303.13;4942201;29;20047;-79
2022/03/15 12:10:55;;;;;;;8.10;5.63;;;;;;;12.03;55.50;97299.88;4923208;29;20052;-80
2022/03/15 12:13:39;;;;;;;9.05;4.97;;;;;;;12.04;54.71;97302.31;4919025;29;20044;-82
2022/03/15 12:16:13;;;;;;;8.85;4.18;;;;;;;12.04;54.53;97286.63;4931833;29;20104;-82
2022/03/15 12:18:45;;;;;;;11.25;4.60;;;;;;;12.04;55.67;97281.38;4928137;29;20566;-83
2022/03/15 12:21:14;;;;;;;7.47;4.60;;;;;;;12.06;56.15;97278.59;4932847;29;20578;-80
2022/03/15 12:23:43;;;;;;;7.35;3.83;;;;;;;12.06;55.97;97262.91;4939096;29;20680;-82
2022/03/15 12:26:20;;;;;;;8.32;5.80;;;;;;;12.07;57.31;97259.28;4941454;29;20075;-84
2022/03/15 12:29:00;;;;;;;10.50;5.68;;;;;;;12.06;57.71;97262.91;4943104;29;20134;-81
2022/03/15 12:31:39;;;;;;;5.38;4.55;;;;;;;12.03;57.12;97250.19;4942593;29;20056;-82
2022/03/15 12:34:09;;;;;;;9.90;5.97;;;;;;;12.05;57.42;97250.84;4938342;29;20076;-82
2022/03/15 12:36:49;;;;;;;10.10;5.38;;;;;;;12.05;58.57;97237.75;4943933;29;20058;-83
2022/03/15 12:39:18;;;;;;;11.35;5.18;;;;;;;12.03;58.19;97231.91;4948738;29;20411;-82
2022/03/15 12:41:46;;;;;;;10.95;4.57;;;;;;;12.00;58.37;97221.78;4947129;29;20411;-82
2022/03/15 12:44:21;;;;;;;19.95;7.03;;;;;;;11.97;58.56;97216.91;4949100;29;20064;-80
2022/03/15 12:46:50;;;;;;;15.45;5.65;;;;;;;11.90;58.93;97211.56;4934709;29;20056;-81
2022/03/15 12:49:19;;;;;;;28.30;7.03;;;;;;;11.84;59.03;97218.25;4930234;29;20135;-81
2022/03/15 12:51:47;;;;;;;11.52;5.60;;;;;;;11.81;59.35;97204.75;4930669;29;20044;-79
2022/03/15 12:54:15;;;;;;;24.23;5.60;;;;;;;11.74;59.28;97209.81;4923644;29;20407;-79
2022/03/15 12:56:45;;;;;;;18.83;5.38;;;;;;;11.63;59.74;97211.06;4944620;29;20119;-79
2022/03/15 12:59:22;;;;;;;28.35;6.15;;;;;;;11.53;60.30;97211.28;4938082;29;20048;-80
2022/03/15 13:01:52;;;;;;;16.25;5.75;;;;;;;11.46;59.99;97199.09;4944861;29;20072;-82
2022/03/15 13:04:30;;;;;;;17.17;5.00;;;;;;;11.40;61.87;97190.13;4935494;29;20136;-79
2022/03/15 13:07:04;;;;;;;16.08;4.93;;;;;;;11.38;61.48;97181.66;4929895;29;20417;-78
2022/03/15 13:09:35;;;;;;;8.60;4.45;;;;;;;11.39;61.90;97178.06;4939878;29;20055;-80
2022/03/15 13:12:14;;;;;;;9.23;3.33;;;;;;;11.42;61.96;97176.91;4926571;29;20071;-76
2022/03/15 13:14:46;;;;;;;5.30;3.33;;;;;;;11.46;62.41;97173.78;4950421;28;20051;-87
2022/03/15 13:17:19;;;;;;;7.60;3.92;;;;;;;11.47;61.26;97170.16;4948841;28;20036;-86
2022/03/15 13:19:52;;;;;;;9.32;3.97;;;;;;;11.43;61.44;97175.91;4942807;28;20064;-89
2022/03/15 13:22:33;;;;;;;7.75;3.72;;;;;;;11.40;61.94;97174.44;4957140;29;20048;-85
2022/03/15 13:25:04;;;;;;;7.95;3.95;;;;;;;11.38;60.67;97179.03;4958935;28;20460;-85
2022/03/15 13:27:39;;;;;;;9.23;3.72;;;;;;;11.34;61.12;97169.91;4948341;28;20106;-88
2022/03/15 13:30:22;;;;;;;8.38;4.38;;;;;;;11.26;61.70;97157.72;4955463;28;20056;-87
2022/03/15 13:32:57;;;;;;;4.80;4.18;;;;;;;11.21;61.13;97159.22;4956428;29;20418;-87
2022/03/15 13:35:26;;;;;;;5.88;4.07;;;;;;;11.17;61.27;97157.94;4940946;29;20056;-84
2022/03/15 13:37:54;;;;;;;7.50;4.88;;;;;;;11.13;61.53;97155.69;4949045;29;20042;-83
2022/03/15 13:40:29;;;;;;;5.38;3.90;;;;;;;11.10;61.42;97145.56;4941273;28;20047;-87
2022/03/15 13:43:01;;;;;;;7.85;4.45;;;;;;;11.02;61.91;97140.41;4943313;28;20040;-90
2022/03/15 13:45:31;;;;;;;9.63;5.00;;;;;;;10.95;62.12;97130.78;4959074;28;20119;-89
2022/03/15 13:48:01;;;;;;;7.50;3.72;;;;;;;10.92;62.32;97129.34;4960303;28;20099;-89
2022/03/15 13:50:35;;;;;;;6.85;4.60;;;;;;;10.93;63.55;97123.13;4948507;28;20139;-87
2022/03/15 13:53:19;;;;;;;7.10;4.05;;;;;;;10.95;63.31;97118.56;4961103;28;20043;-88
2022/03/15 13:55:51;;;;;;;9.40;4.60;;;;;;;10.92;62.88;97108.47;4922550;29;20052;-88
2022/03/15 13:58:32;;;;;;;8.23;4.65;;;;;;;10.86;63.77;97101.31;4938523;28;20067;-85
2022/03/15 14:01:05;;;;;;;8.45;5.13;;;;;;;10.76;63.95;97098.09;4947124;28;20083;-88
2022/03/15 14:03:38;;;;;;;4.80;4.10;;;;;;;10.69;64.11;97092.75;4934862;29;20087;-86
2022/03/15 14:06:20;;;;;;;5.13;4.50;;;;;;;10.62;64.28;97095.22;4935398;29;20489;-83
2022/03/15 14:08:55;;;;;;;6.75;4.10;;;;;;;10.57;64.40;97100.16;4956430;29;20055;-84
2022/03/15 14:11:30;;;;;;;8.93;4.30;;;;;;;10.51;64.42;97079.94;4957669;29;20056;-88
2022/03/15 14:14:05;;;;;;;5.00;4.05;;;;;;;10.49;64.71;97082.75;4953347;28;20118;-84
2022/03/15 14:16:49;;;;;;;5.75;3.97;;;;;;;10.48;65.19;97080.28;4957964;29;20134;-86
2022/03/15 14:19:19;;;;;;;5.97;4.32;;;;;;;10.45;64.34;97080.63;4957600;28;20070;-89
2022/03/15 14:21:50;;;;;;;6.63;4.55;;;;;;;10.37;64.71;97070.22;4956476;28;20051;-88
2022/03/15 14:24:29;;;;;;;7.90;4.15;;;;;;;10.28;65.17;97065.00;4951462;29;20048;-84
2022/03/15 14:27:04;;;;;;;4.65;4.00;;;;;;;10.23;65.18;97056.88;4938525;29;20100;-84
2022/03/15 14:29:36;;;;;;;5.13;4.35;;;;;;;10.17;65.54;97047.13;4945899;28;20043;-89
2022/03/15 14:32:08;;;;;;;4.60;4.13;;;;;;;10.12;65.81;97049.41;4949464;28;20055;-83
2022/03/15 14:34:41;;;;;;;7.15;4.78;;;;;;;10.06;65.82;97050.09;4937960;29;20052;-85
2022/03/15 14:37:16;;;;;;;6.18;4.63;;;;;;;9.99;66.28;97041.31;4936897;28;20479;-83
2022/03/15 14:40:03;;;;;;;7.22;4.25;;;;;;;9.94;66.65;97031.38;4943988;29;20146;-88